sensor_id;sensor_type;location;lat;lon;timestamp;P1;durP1;ratioP1;P2;durP2;ratioP2
17927;SDS011;9089;58.396;15.544;2023-02-01T00:01:17;4.80;;;2.88;;
17927;SDS011;9089;58.396;15.544;2023-02-01T00:03:42;8.10;;;2.63;;
17927;SDS011;9089;58.396;15.544;2023-02-01T00:06:08;6.32;;;3.03;;
17927;SDS011;9089;58.396;15.544;2023-02-01T00:08:34;5.50;;;3.15;;
17927;SDS011;9089;58.396;15.544;2023-02-01T00:11:00;5.68;;;2.97;;
17927;SDS011;9089;58.396;15.544;2023-02-01T00:13:27;5.95;;;3.35;;
17927;SDS011;9089;58.396;15.544;2023-02-01T00:15:53;8.13;;;3.70;;
17927;SDS011;9089;58.396;15.544;2023-02-01T00:18:18;8.25;;;4.07;;
17927;SDS011;9089;58.396;15.544;2023-02-01T00:20:45;6.07;;;3.30;;
17927;SDS011;9089;58.396;15.544;2023-02-01T00:23:10;5.93;;;2.88;;
17927;SDS011;9089;58.396;15.544;2023-02-01T00:25:37;7.78;;;3.10;;
17927;SDS011;9089;58.396;15.544;2023-02-01T00:28:02;6.38;;;3.42;;
17927;SDS011;9089;58.396;15.544;2023-02-01T00:30:28;6.18;;;3.45;;
17927;SDS011;9089;58.396;15.544;2023-02-01T00:32:53;5.25;;;3.00;;
17927;SDS011;9089;58.396;15.544;2023-02-01T00:35:18;4.53;;;2.90;;
17927;SDS011;9089;58.396;15.544;2023-02-01T00:37:44;3.13;;;2.83;;
17927;SDS011;9089;58.396;15.544;2023-02-01T00:40:10;4.43;;;3.10;;
17927;SDS011;9089;58.396;15.544;2023-02-01T00:42:37;4.80;;;3.13;;
17927;SDS011;9089;58.396;15.544;2023-02-01T00:45:02;3.65;;;2.88;;
17927;SDS011;9089;58.396;15.544;2023-02-01T00:47:28;3.20;;;2.88;;
17927;SDS011;9089;58.396;15.544;2023-02-01T00:49:54;5.15;;;2.72;;
17927;SDS011;9089;58.396;15.544;2023-02-01T00:52:20;3.67;;;2.70;;
17927;SDS011;9089;58.396;15.544;2023-02-01T00:54:45;3.08;;;2.10;;
17927;SDS011;9089;58.396;15.544;2023-02-01T00:57:11;4.85;;;2.45;;
17927;SDS011;9089;58.396;15.544;2023-02-01T00:59:37;4.90;;;2.40;;
17927;SDS011;9089;58.396;15.544;2023-02-01T01:02:03;2.58;;;2.17;;
17927;SDS011;9089;58.396;15.544;2023-02-01T01:04:28;3.58;;;2.03;;
17927;SDS011;9089;58.396;15.544;2023-02-01T01:06:54;2.22;;;2.03;;
17927;SDS011;9089;58.396;15.544;2023-02-01T01:09:19;2.75;;;1.95;;
17927;SDS011;9089;58.396;15.544;2023-02-01T01:11:46;1.95;;;1.60;;
17927;SDS011;9089;58.396;15.544;2023-02-01T01:14:11;2.10;;;1.70;;
17927;SDS011;9089;58.396;15.544;2023-02-01T01:16:38;3.75;;;1.70;;
17927;SDS011;9089;58.396;15.544;2023-02-01T01:19:03;2.65;;;1.63;;
17927;SDS011;9089;58.396;15.544;2023-02-01T01:21:29;1.63;;;1.52;;
17927;SDS011;9089;58.396;15.544;2023-02-01T01:23:55;1.90;;;1.75;;
17927;SDS011;9089;58.396;15.544;2023-02-01T01:26:21;2.10;;;1.90;;
17927;SDS011;9089;58.396;15.544;2023-02-01T01:28:47;2.75;;;1.88;;
17927;SDS011;9089;58.396;15.544;2023-02-01T01:31:14;1.85;;;1.75;;
17927;SDS011;9089;58.396;15.544;2023-02-01T01:33:41;2.30;;;1.85;;
17927;SDS011;9089;58.396;15.544;2023-02-01T01:36:09;1.58;;;1.48;;
17927;SDS011;9089;58.396;15.544;2023-02-01T01:38:36;1.30;;;1.20;;
17927;SDS011;9089;58.396;15.544;2023-02-01T01:41:01;2.92;;;1.50;;
17927;SDS011;9089;58.396;15.544;2023-02-01T01:46:07;3.00;;;1.42;;
17927;SDS011;9089;58.396;15.544;2023-02-01T01:48:33;2.05;;;1.23;;
17927;SDS011;9089;58.396;15.544;2023-02-01T01:51:00;3.85;;;1.50;;
17927;SDS011;9089;58.396;15.544;2023-02-01T01:53:28;3.58;;;1.50;;
17927;SDS011;9089;58.396;15.544;2023-02-01T01:55:56;1.58;;;1.45;;
17927;SDS011;9089;58.396;15.544;2023-02-01T01:58:22;1.92;;;1.55;;
17927;SDS011;9089;58.396;15.544;2023-02-01T02:00:50;3.20;;;1.45;;
17927;SDS011;9089;58.396;15.544;2023-02-01T02:03:17;1.40;;;1.30;;
17927;SDS011;9089;58.396;15.544;2023-02-01T02:05:43;4.28;;;1.35;;
17927;SDS011;9089;58.396;15.544;2023-02-01T02:08:10;2.70;;;1.40;;
17927;SDS011;9089;58.396;15.544;2023-02-01T02:10:36;2.10;;;1.00;;
17927;SDS011;9089;58.396;15.544;2023-02-01T02:13:21;1.85;;;1.40;;
17927;SDS011;9089;58.396;15.544;2023-02-01T02:15:49;3.47;;;1.40;;
17927;SDS011;9089;58.396;15.544;2023-02-01T02:18:19;2.42;;;1.40;;
17927;SDS011;9089;58.396;15.544;2023-02-01T02:20:50;1.73;;;1.30;;
17927;SDS011;9089;58.396;15.544;2023-02-01T02:23:31;4.80;;;1.30;;
17927;SDS011;9089;58.396;15.544;2023-02-01T02:26:12;1.98;;;1.50;;
17927;SDS011;9089;58.396;15.544;2023-02-01T02:28:48;2.00;;;1.25;;
17927;SDS011;9089;58.396;15.544;2023-02-01T02:34:03;3.58;;;1.70;;
17927;SDS011;9089;58.396;15.544;2023-02-01T02:36:36;3.08;;;1.23;;
17927;SDS011;9089;58.396;15.544;2023-02-01T02:39:05;4.00;;;1.63;;
17927;SDS011;9089;58.396;15.544;2023-02-01T02:41:33;2.83;;;1.55;;
17927;SDS011;9089;58.396;15.544;2023-02-01T02:44:21;1.42;;;1.33;;
17927;SDS011;9089;58.396;15.544;2023-02-01T02:47:10;3.13;;;1.70;;
17927;SDS011;9089;58.396;15.544;2023-02-01T02:49:53;1.95;;;1.30;;
17927;SDS011;9089;58.396;15.544;2023-02-01T02:52:38;4.47;;;1.30;;
17927;SDS011;9089;58.396;15.544;2023-02-01T02:55:26;4.38;;;1.33;;
17927;SDS011;9089;58.396;15.544;2023-02-01T02:57:53;3.92;;;1.42;;
17927;SDS011;9089;58.396;15.544;2023-02-01T03:00:39;2.97;;;1.58;;
17927;SDS011;9089;58.396;15.544;2023-02-01T03:03:23;2.70;;;1.85;;
17927;SDS011;9089;58.396;15.544;2023-02-01T03:06:12;4.93;;;1.50;;
17927;SDS011;9089;58.396;15.544;2023-02-01T03:08:38;2.55;;;1.25;;
17927;SDS011;9089;58.396;15.544;2023-02-01T03:11:11;1.80;;;1.40;;
17927;SDS011;9089;58.396;15.544;2023-02-01T03:13:38;1.88;;;1.23;;
17927;SDS011;9089;58.396;15.544;2023-02-01T03:16:07;2.83;;;1.50;;
17927;SDS011;9089;58.396;15.544;2023-02-01T03:18:35;2.97;;;1.23;;
17927;SDS011;9089;58.396;15.544;2023-02-01T03:21:04;2.30;;;1.30;;
17927;SDS011;9089;58.396;15.544;2023-02-01T03:23:33;3.72;;;1.80;;
17927;SDS011;9089;58.396;15.544;2023-02-01T03:25:59;3.35;;;1.40;;
17927;SDS011;9089;58.396;15.544;2023-02-01T03:28:25;3.63;;;1.30;;
17927;SDS011;9089;58.396;15.544;2023-02-01T03:30:53;5.22;;;1.50;;
17927;SDS011;9089;58.396;15.544;2023-02-01T03:33:20;4.82;;;1.38;;
17927;SDS011;9089;58.396;15.544;2023-02-01T03:35:48;2.92;;;1.30;;
17927;SDS011;9089;58.396;15.544;2023-02-01T03:38:17;3.45;;;1.38;;
17927;SDS011;9089;58.396;15.544;2023-02-01T03:40:46;4.25;;;1.30;;
17927;SDS011;9089;58.396;15.544;2023-02-01T03:43:14;5.00;;;1.80;;
17927;SDS011;9089;58.396;15.544;2023-02-01T03:45:43;3.83;;;1.50;;
17927;SDS011;9089;58.396;15.544;2023-02-01T03:48:09;7.47;;;1.70;;
17927;SDS011;9089;58.396;15.544;2023-02-01T03:50:37;3.40;;;1.50;;
17927;SDS011;9089;58.396;15.544;2023-02-01T03:53:06;5.13;;;1.30;;
17927;SDS011;9089;58.396;15.544;2023-02-01T03:55:33;3.60;;;1.20;;
17927;SDS011;9089;58.396;15.544;2023-02-01T03:58:02;5.53;;;1.23;;
17927;SDS011;9089;58.396;15.544;2023-02-01T04:00:29;1.00;;;0.90;;
17927;SDS011;9089;58.396;15.544;2023-02-01T04:02:56;4.25;;;1.40;;
17927;SDS011;9089;58.396;15.544;2023-02-01T04:05:22;3.55;;;1.42;;
17927;SDS011;9089;58.396;15.544;2023-02-01T04:07:58;3.10;;;1.50;;
17927;SDS011;9089;58.396;15.544;2023-02-01T04:10:24;2.58;;;1.33;;
17927;SDS011;9089;58.396;15.544;2023-02-01T04:12:49;4.47;;;1.35;;
17927;SDS011;9089;58.396;15.544;2023-02-01T04:15:16;3.15;;;1.25;;
17927;SDS011;9089;58.396;15.544;2023-02-01T04:17:42;3.38;;;1.23;;
17927;SDS011;9089;58.396;15.544;2023-02-01T04:20:08;3.08;;;1.20;;
17927;SDS011;9089;58.396;15.544;2023-02-01T04:22:34;3.88;;;1.80;;
17927;SDS011;9089;58.396;15.544;2023-02-01T04:24:59;4.65;;;1.58;;
17927;SDS011;9089;58.396;15.544;2023-02-01T04:27:25;1.42;;;1.20;;
17927;SDS011;9089;58.396;15.544;2023-02-01T04:29:50;3.55;;;1.60;;
17927;SDS011;9089;58.396;15.544;2023-02-01T04:32:17;5.90;;;1.48;;
17927;SDS011;9089;58.396;15.544;2023-02-01T04:34:44;1.40;;;1.30;;
17927;SDS011;9089;58.396;15.544;2023-02-01T04:37:10;1.90;;;1.30;;
17927;SDS011;9089;58.396;15.544;2023-02-01T04:39:35;3.25;;;1.80;;
17927;SDS011;9089;58.396;15.544;2023-02-01T04:42:01;4.97;;;1.30;;
17927;SDS011;9089;58.396;15.544;2023-02-01T04:44:26;5.05;;;1.30;;
17927;SDS011;9089;58.396;15.544;2023-02-01T04:46:51;4.72;;;1.40;;
17927;SDS011;9089;58.396;15.544;2023-02-01T04:49:18;6.55;;;1.40;;
17927;SDS011;9089;58.396;15.544;2023-02-01T04:51:45;5.97;;;1.63;;
17927;SDS011;9089;58.396;15.544;2023-02-01T04:54:10;4.10;;;1.48;;
17927;SDS011;9089;58.396;15.544;2023-02-01T04:56:38;4.57;;;1.35;;
17927;SDS011;9089;58.396;15.544;2023-02-01T04:59:04;2.47;;;1.23;;
17927;SDS011;9089;58.396;15.544;2023-02-01T05:01:29;4.95;;;1.33;;
17927;SDS011;9089;58.396;15.544;2023-02-01T05:03:55;3.35;;;1.40;;
17927;SDS011;9089;58.396;15.544;2023-02-01T05:06:22;3.08;;;1.40;;
17927;SDS011;9089;58.396;15.544;2023-02-01T05:08:47;6.15;;;1.20;;
17927;SDS011;9089;58.396;15.544;2023-02-01T05:11:13;7.68;;;1.48;;
17927;SDS011;9089;58.396;15.544;2023-02-01T05:13:57;2.78;;;1.35;;
17927;SDS011;9089;58.396;15.544;2023-02-01T05:16:22;2.92;;;1.67;;
17927;SDS011;9089;58.396;15.544;2023-02-01T05:18:48;4.50;;;1.30;;
17927;SDS011;9089;58.396;15.544;2023-02-01T05:21:13;6.30;;;1.30;;
17927;SDS011;9089;58.396;15.544;2023-02-01T05:23:40;4.18;;;1.10;;
17927;SDS011;9089;58.396;15.544;2023-02-01T05:26:24;2.53;;;1.40;;
17927;SDS011;9089;58.396;15.544;2023-02-01T05:28:50;2.92;;;1.13;;
17927;SDS011;9089;58.396;15.544;2023-02-01T05:31:15;3.33;;;1.10;;
17927;SDS011;9089;58.396;15.544;2023-02-01T05:33:41;2.80;;;1.38;;
17927;SDS011;9089;58.396;15.544;2023-02-01T05:36:06;5.68;;;1.23;;
17927;SDS011;9089;58.396;15.544;2023-02-01T05:38:32;6.47;;;1.45;;
17927;SDS011;9089;58.396;15.544;2023-02-01T05:40:59;5.30;;;1.25;;
17927;SDS011;9089;58.396;15.544;2023-02-01T05:43:24;6.18;;;1.20;;
17927;SDS011;9089;58.396;15.544;2023-02-01T05:45:51;7.00;;;1.30;;
17927;SDS011;9089;58.396;15.544;2023-02-01T05:48:16;6.35;;;1.25;;
17927;SDS011;9089;58.396;15.544;2023-02-01T05:50:42;5.43;;;1.40;;
17927;SDS011;9089;58.396;15.544;2023-02-01T05:53:07;5.72;;;1.40;;
17927;SDS011;9089;58.396;15.544;2023-02-01T05:55:33;6.15;;;1.48;;
17927;SDS011;9089;58.396;15.544;2023-02-01T05:58:00;3.55;;;1.30;;
17927;SDS011;9089;58.396;15.544;2023-02-01T06:00:25;8.25;;;1.20;;
17927;SDS011;9089;58.396;15.544;2023-02-01T06:02:50;4.20;;;1.35;;
17927;SDS011;9089;58.396;15.544;2023-02-01T06:05:16;8.20;;;1.50;;
17927;SDS011;9089;58.396;15.544;2023-02-01T06:07:41;6.60;;;1.70;;
17927;SDS011;9089;58.396;15.544;2023-02-01T06:10:08;4.95;;;1.30;;
17927;SDS011;9089;58.396;15.544;2023-02-01T06:12:33;6.35;;;1.52;;
17927;SDS011;9089;58.396;15.544;2023-02-01T06:15:00;3.33;;;1.52;;
17927;SDS011;9089;58.396;15.544;2023-02-01T06:17:25;10.38;;;1.60;;
17927;SDS011;9089;58.396;15.544;2023-02-01T06:19:51;11.13;;;2.13;;
17927;SDS011;9089;58.396;15.544;2023-02-01T06:22:16;5.18;;;1.50;;
17927;SDS011;9089;58.396;15.544;2023-02-01T06:24:42;5.60;;;1.55;;
17927;SDS011;9089;58.396;15.544;2023-02-01T06:27:07;3.75;;;1.50;;
17927;SDS011;9089;58.396;15.544;2023-02-01T06:29:34;5.85;;;1.52;;
17927;SDS011;9089;58.396;15.544;2023-02-01T06:32:01;8.48;;;2.28;;
17927;SDS011;9089;58.396;15.544;2023-02-01T06:34:27;3.78;;;1.52;;
17927;SDS011;9089;58.396;15.544;2023-02-01T06:36:52;5.72;;;2.00;;
17927;SDS011;9089;58.396;15.544;2023-02-01T06:39:18;6.43;;;1.67;;
17927;SDS011;9089;58.396;15.544;2023-02-01T06:41:45;6.72;;;1.55;;
17927;SDS011;9089;58.396;15.544;2023-02-01T06:44:11;16.77;;;1.73;;
17927;SDS011;9089;58.396;15.544;2023-02-01T06:46:36;5.60;;;1.85;;
17927;SDS011;9089;58.396;15.544;2023-02-01T06:49:03;5.40;;;1.45;;
17927;SDS011;9089;58.396;15.544;2023-02-01T06:51:28;6.72;;;1.75;;
17927;SDS011;9089;58.396;15.544;2023-02-01T06:53:54;4.60;;;1.48;;
17927;SDS011;9089;58.396;15.544;2023-02-01T06:56:20;6.00;;;1.50;;
17927;SDS011;9089;58.396;15.544;2023-02-01T06:58:45;4.68;;;1.60;;
17927;SDS011;9089;58.396;15.544;2023-02-01T07:01:11;3.20;;;1.35;;
17927;SDS011;9089;58.396;15.544;2023-02-01T07:03:36;7.38;;;1.67;;
17927;SDS011;9089;58.396;15.544;2023-02-01T07:06:03;6.35;;;1.48;;
17927;SDS011;9089;58.396;15.544;2023-02-01T07:08:30;10.50;;;2.22;;
17927;SDS011;9089;58.396;15.544;2023-02-01T07:10:55;9.30;;;1.77;;
17927;SDS011;9089;58.396;15.544;2023-02-01T07:13:21;4.82;;;1.55;;
17927;SDS011;9089;58.396;15.544;2023-02-01T07:15:46;7.95;;;2.03;;
17927;SDS011;9089;58.396;15.544;2023-02-01T07:18:12;8.50;;;1.80;;
17927;SDS011;9089;58.396;15.544;2023-02-01T07:20:39;5.13;;;1.42;;
17927;SDS011;9089;58.396;15.544;2023-02-01T07:23:06;4.90;;;1.63;;
17927;SDS011;9089;58.396;15.544;2023-02-01T07:25:31;7.78;;;1.60;;
17927;SDS011;9089;58.396;15.544;2023-02-01T07:27:56;6.20;;;1.73;;
17927;SDS011;9089;58.396;15.544;2023-02-01T07:30:22;6.43;;;1.38;;
17927;SDS011;9089;58.396;15.544;2023-02-01T07:32:47;12.55;;;1.75;;
17927;SDS011;9089;58.396;15.544;2023-02-01T07:35:13;4.95;;;1.50;;
17927;SDS011;9089;58.396;15.544;2023-02-01T07:37:39;3.75;;;1.42;;
17927;SDS011;9089;58.396;15.544;2023-02-01T07:40:06;7.00;;;1.80;;
17927;SDS011;9089;58.396;15.544;2023-02-01T07:42:33;12.00;;;1.77;;
17927;SDS011;9089;58.396;15.544;2023-02-01T07:44:58;9.52;;;1.75;;
17927;SDS011;9089;58.396;15.544;2023-02-01T07:47:24;7.15;;;2.20;;
17927;SDS011;9089;58.396;15.544;2023-02-01T07:49:49;5.43;;;2.17;;
17927;SDS011;9089;58.396;15.544;2023-02-01T07:52:15;7.90;;;2.00;;
17927;SDS011;9089;58.396;15.544;2023-02-01T07:54:43;10.18;;;2.63;;
17927;SDS011;9089;58.396;15.544;2023-02-01T07:57:10;10.35;;;2.35;;
17927;SDS011;9089;58.396;15.544;2023-02-01T07:59:36;11.98;;;2.88;;
17927;SDS011;9089;58.396;15.544;2023-02-01T08:02:22;13.80;;;3.25;;
17927;SDS011;9089;58.396;15.544;2023-02-01T08:04:47;16.05;;;4.45;;
17927;SDS011;9089;58.396;15.544;2023-02-01T08:07:13;11.32;;;3.78;;
17927;SDS011;9089;58.396;15.544;2023-02-01T08:09:38;10.10;;;4.20;;
17927;SDS011;9089;58.396;15.544;2023-02-01T08:12:04;13.18;;;4.20;;
17927;SDS011;9089;58.396;15.544;2023-02-01T08:14:31;10.63;;;3.70;;
17927;SDS011;9089;58.396;15.544;2023-02-01T08:16:56;10.68;;;4.50;;
17927;SDS011;9089;58.396;15.544;2023-02-01T08:19:22;12.73;;;4.43;;
17927;SDS011;9089;58.396;15.544;2023-02-01T08:21:47;13.85;;;3.90;;
17927;SDS011;9089;58.396;15.544;2023-02-01T08:24:14;8.25;;;3.45;;
17927;SDS011;9089;58.396;15.544;2023-02-01T08:26:39;8.50;;;2.83;;
17927;SDS011;9089;58.396;15.544;2023-02-01T08:29:05;15.18;;;3.05;;
17927;SDS011;9089;58.396;15.544;2023-02-01T08:31:33;8.40;;;2.53;;
17927;SDS011;9089;58.396;15.544;2023-02-01T08:33:59;7.88;;;2.55;;
17927;SDS011;9089;58.396;15.544;2023-02-01T08:36:26;8.55;;;2.40;;
17927;SDS011;9089;58.396;15.544;2023-02-01T08:38:51;9.82;;;2.85;;
17927;SDS011;9089;58.396;15.544;2023-02-01T08:41:17;11.88;;;3.83;;
17927;SDS011;9089;58.396;15.544;2023-02-01T08:43:44;5.30;;;3.00;;
17927;SDS011;9089;58.396;15.544;2023-02-01T08:46:10;9.23;;;2.40;;
17927;SDS011;9089;58.396;15.544;2023-02-01T08:48:37;12.05;;;3.10;;
17927;SDS011;9089;58.396;15.544;2023-02-01T08:51:03;11.45;;;4.30;;
17927;SDS011;9089;58.396;15.544;2023-02-01T08:53:29;12.70;;;3.95;;
17927;SDS011;9089;58.396;15.544;2023-02-01T08:55:55;9.98;;;2.90;;
17927;SDS011;9089;58.396;15.544;2023-02-01T08:58:20;8.18;;;3.38;;
17927;SDS011;9089;58.396;15.544;2023-02-01T09:00:46;8.50;;;3.00;;
17927;SDS011;9089;58.396;15.544;2023-02-01T09:03:13;9.23;;;2.85;;
17927;SDS011;9089;58.396;15.544;2023-02-01T09:05:40;4.30;;;2.35;;
17927;SDS011;9089;58.396;15.544;2023-02-01T09:08:05;6.70;;;1.92;;
17927;SDS011;9089;58.396;15.544;2023-02-01T09:10:31;13.18;;;2.33;;
17927;SDS011;9089;58.396;15.544;2023-02-01T09:12:57;8.30;;;2.00;;
17927;SDS011;9089;58.396;15.544;2023-02-01T09:15:22;12.00;;;2.47;;
17927;SDS011;9089;58.396;15.544;2023-02-01T09:17:48;10.10;;;2.35;;
17927;SDS011;9089;58.396;15.544;2023-02-01T09:20:14;10.57;;;2.00;;
17927;SDS011;9089;58.396;15.544;2023-02-01T09:22:41;7.20;;;2.38;;
17927;SDS011;9089;58.396;15.544;2023-02-01T09:25:07;6.55;;;2.03;;
17927;SDS011;9089;58.396;15.544;2023-02-01T09:27:32;9.95;;;2.30;;
17927;SDS011;9089;58.396;15.544;2023-02-01T09:29:58;10.40;;;1.80;;
17927;SDS011;9089;58.396;15.544;2023-02-01T09:32:23;6.40;;;1.80;;
17927;SDS011;9089;58.396;15.544;2023-02-01T09:34:49;11.63;;;1.95;;
17927;SDS011;9089;58.396;15.544;2023-02-01T09:37:14;9.75;;;1.75;;
17927;SDS011;9089;58.396;15.544;2023-02-01T09:39:41;6.53;;;1.80;;
17927;SDS011;9089;58.396;15.544;2023-02-01T09:44:57;8.10;;;2.63;;
17927;SDS011;9089;58.396;15.544;2023-02-01T09:47:24;7.80;;;2.28;;
17927;SDS011;9089;58.396;15.544;2023-02-01T09:49:52;14.15;;;3.30;;
17927;SDS011;9089;58.396;15.544;2023-02-01T09:52:20;9.43;;;3.38;;
17927;SDS011;9089;58.396;15.544;2023-02-01T09:54:52;9.50;;;2.20;;
17927;SDS011;9089;58.396;15.544;2023-02-01T09:57:23;6.28;;;1.83;;
17927;SDS011;9089;58.396;15.544;2023-02-01T09:59:52;4.07;;;1.88;;
17927;SDS011;9089;58.396;15.544;2023-02-01T10:02:18;7.60;;;2.28;;
17927;SDS011;9089;58.396;15.544;2023-02-01T10:04:45;5.55;;;1.80;;
17927;SDS011;9089;58.396;15.544;2023-02-01T10:07:14;13.13;;;2.70;;
17927;SDS011;9089;58.396;15.544;2023-02-01T10:09:52;4.32;;;1.70;;
17927;SDS011;9089;58.396;15.544;2023-02-01T10:15:15;8.43;;;2.00;;
17927;SDS011;9089;58.396;15.544;2023-02-01T10:17:47;9.05;;;1.70;;
17927;SDS011;9089;58.396;15.544;2023-02-01T10:20:17;6.30;;;1.83;;
17927;SDS011;9089;58.396;15.544;2023-02-01T10:22:51;6.13;;;1.83;;
17927;SDS011;9089;58.396;15.544;2023-02-01T10:25:20;11.50;;;2.30;;
17927;SDS011;9089;58.396;15.544;2023-02-01T10:27:48;6.93;;;2.08;;
17927;SDS011;9089;58.396;15.544;2023-02-01T10:30:16;7.68;;;2.28;;
17927;SDS011;9089;58.396;15.544;2023-02-01T10:32:43;8.88;;;2.28;;
17927;SDS011;9089;58.396;15.544;2023-02-01T10:35:09;9.52;;;2.70;;
17927;SDS011;9089;58.396;15.544;2023-02-01T10:37:39;9.95;;;3.33;;
17927;SDS011;9089;58.396;15.544;2023-02-01T10:40:11;6.28;;;2.42;;
17927;SDS011;9089;58.396;15.544;2023-02-01T10:42:39;12.73;;;2.50;;
17927;SDS011;9089;58.396;15.544;2023-02-01T10:45:05;8.82;;;2.28;;
17927;SDS011;9089;58.396;15.544;2023-02-01T10:47:31;10.05;;;2.47;;
17927;SDS011;9089;58.396;15.544;2023-02-01T10:49:58;11.48;;;2.70;;
17927;SDS011;9089;58.396;15.544;2023-02-01T10:52:30;9.82;;;2.53;;
17927;SDS011;9089;58.396;15.544;2023-02-01T10:54:56;7.78;;;2.30;;
17927;SDS011;9089;58.396;15.544;2023-02-01T10:57:48;9.70;;;2.75;;
17927;SDS011;9089;58.396;15.544;2023-02-01T11:00:20;12.25;;;2.35;;
17927;SDS011;9089;58.396;15.544;2023-02-01T11:02:46;8.38;;;2.67;;
17927;SDS011;9089;58.396;15.544;2023-02-01T11:05:11;11.25;;;3.00;;
17927;SDS011;9089;58.396;15.544;2023-02-01T11:07:37;7.45;;;2.63;;
17927;SDS011;9089;58.396;15.544;2023-02-01T11:10:04;11.18;;;3.00;;
17927;SDS011;9089;58.396;15.544;2023-02-01T11:12:30;10.95;;;2.58;;
17927;SDS011;9089;58.396;15.544;2023-02-01T11:14:58;12.50;;;2.80;;
17927;SDS011;9089;58.396;15.544;2023-02-01T11:17:25;6.20;;;2.78;;
17927;SDS011;9089;58.396;15.544;2023-02-01T11:19:56;11.95;;;2.60;;
17927;SDS011;9089;58.396;15.544;2023-02-01T11:22:22;9.25;;;2.85;;
17927;SDS011;9089;58.396;15.544;2023-02-01T11:24:49;10.88;;;2.72;;
17927;SDS011;9089;58.396;15.544;2023-02-01T11:27:15;13.88;;;3.03;;
17927;SDS011;9089;58.396;15.544;2023-02-01T11:29:41;9.57;;;2.40;;
17927;SDS011;9089;58.396;15.544;2023-02-01T11:32:10;12.27;;;2.92;;
17927;SDS011;9089;58.396;15.544;2023-02-01T11:34:37;7.38;;;2.28;;
17927;SDS011;9089;58.396;15.544;2023-02-01T11:37:03;8.00;;;2.67;;
17927;SDS011;9089;58.396;15.544;2023-02-01T11:39:30;9.38;;;2.42;;
17927;SDS011;9089;58.396;15.544;2023-02-01T11:41:57;10.70;;;2.45;;
17927;SDS011;9089;58.396;15.544;2023-02-01T11:44:26;11.55;;;2.20;;
17927;SDS011;9089;58.396;15.544;2023-02-01T11:46:53;11.35;;;2.47;;
17927;SDS011;9089;58.396;15.544;2023-02-01T11:49:21;7.28;;;2.40;;
17927;SDS011;9089;58.396;15.544;2023-02-01T11:51:50;8.73;;;2.40;;
17927;SDS011;9089;58.396;15.544;2023-02-01T11:54:21;9.82;;;1.95;;
17927;SDS011;9089;58.396;15.544;2023-02-01T11:56:51;7.10;;;1.98;;
17927;SDS011;9089;58.396;15.544;2023-02-01T11:59:28;9.65;;;2.28;;
17927;SDS011;9089;58.396;15.544;2023-02-01T12:07:27;11.18;;;2.60;;
17927;SDS011;9089;58.396;15.544;2023-02-01T12:09:58;12.05;;;2.88;;
17927;SDS011;9089;58.396;15.544;2023-02-01T12:12:28;13.43;;;2.65;;
17927;SDS011;9089;58.396;15.544;2023-02-01T12:15:03;8.65;;;2.30;;
17927;SDS011;9089;58.396;15.544;2023-02-01T12:17:37;6.75;;;1.90;;
17927;SDS011;9089;58.396;15.544;2023-02-01T12:20:10;15.88;;;2.58;;
17927;SDS011;9089;58.396;15.544;2023-02-01T12:22:44;9.95;;;2.33;;
17927;SDS011;9089;58.396;15.544;2023-02-01T12:25:18;11.45;;;2.20;;
17927;SDS011;9089;58.396;15.544;2023-02-01T12:27:53;8.60;;;2.38;;
17927;SDS011;9089;58.396;15.544;2023-02-01T12:30:35;11.57;;;2.50;;
17927;SDS011;9089;58.396;15.544;2023-02-01T12:33:07;12.75;;;3.00;;
17927;SDS011;9089;58.396;15.544;2023-02-01T12:35:47;8.10;;;2.00;;
17927;SDS011;9089;58.396;15.544;2023-02-01T12:38:20;6.93;;;2.28;;
17927;SDS011;9089;58.396;15.544;2023-02-01T12:40:53;4.50;;;1.70;;
17927;SDS011;9089;58.396;15.544;2023-02-01T12:43:23;3.67;;;1.60;;
17927;SDS011;9089;58.396;15.544;2023-02-01T12:45:52;2.92;;;1.63;;
17927;SDS011;9089;58.396;15.544;2023-02-01T12:48:22;5.88;;;2.10;;
17927;SDS011;9089;58.396;15.544;2023-02-01T12:50:51;2.80;;;1.70;;
17927;SDS011;9089;58.396;15.544;2023-02-01T12:53:23;2.97;;;1.60;;
17927;SDS011;9089;58.396;15.544;2023-02-01T12:55:50;4.95;;;1.98;;
17927;SDS011;9089;58.396;15.544;2023-02-01T12:58:18;4.80;;;1.73;;
17927;SDS011;9089;58.396;15.544;2023-02-01T13:00:45;5.90;;;1.77;;
17927;SDS011;9089;58.396;15.544;2023-02-01T13:03:15;3.35;;;1.60;;
17927;SDS011;9089;58.396;15.544;2023-02-01T13:05:47;6.30;;;1.95;;
17927;SDS011;9089;58.396;15.544;2023-02-01T13:08:16;1.83;;;1.60;;
17927;SDS011;9089;58.396;15.544;2023-02-01T13:10:45;3.55;;;1.88;;
17927;SDS011;9089;58.396;15.544;2023-02-01T13:13:14;3.17;;;1.80;;
17927;SDS011;9089;58.396;15.544;2023-02-01T13:15:42;5.30;;;2.00;;
17927;SDS011;9089;58.396;15.544;2023-02-01T13:18:11;3.17;;;1.77;;
17927;SDS011;9089;58.396;15.544;2023-02-01T13:20:39;3.75;;;1.80;;
17927;SDS011;9089;58.396;15.544;2023-02-01T13:23:08;2.83;;;2.00;;
17927;SDS011;9089;58.396;15.544;2023-02-01T13:25:35;2.33;;;1.90;;
17927;SDS011;9089;58.396;15.544;2023-02-01T13:28:06;2.58;;;1.70;;
17927;SDS011;9089;58.396;15.544;2023-02-01T13:30:34;3.20;;;1.90;;
17927;SDS011;9089;58.396;15.544;2023-02-01T13:33:10;3.42;;;1.77;;
17927;SDS011;9089;58.396;15.544;2023-02-01T13:35:45;2.63;;;1.60;;
17927;SDS011;9089;58.396;15.544;2023-02-01T13:38:22;1.67;;;1.55;;
17927;SDS011;9089;58.396;15.544;2023-02-01T13:40:51;2.83;;;1.40;;
17927;SDS011;9089;58.396;15.544;2023-02-01T13:43:23;2.10;;;1.48;;
17927;SDS011;9089;58.396;15.544;2023-02-01T13:45:49;2.17;;;1.48;;
17927;SDS011;9089;58.396;15.544;2023-02-01T13:48:18;1.77;;;1.20;;
17927;SDS011;9089;58.396;15.544;2023-02-01T13:50:48;1.25;;;1.20;;
17927;SDS011;9089;58.396;15.544;2023-02-01T13:53:16;2.63;;;1.10;;
17927;SDS011;9089;58.396;15.544;2023-02-01T13:55:43;1.60;;;1.40;;
17927;SDS011;9089;58.396;15.544;2023-02-01T13:58:15;1.13;;;1.02;;
17927;SDS011;9089;58.396;15.544;2023-02-01T14:00:42;1.40;;;1.30;;
17927;SDS011;9089;58.396;15.544;2023-02-01T14:03:13;1.15;;;1.05;;
17927;SDS011;9089;58.396;15.544;2023-02-01T14:05:57;2.25;;;1.30;;
17927;SDS011;9089;58.396;15.544;2023-02-01T14:08:35;1.45;;;1.35;;
17927;SDS011;9089;58.396;15.544;2023-02-01T14:11:02;2.08;;;1.20;;
17927;SDS011;9089;58.396;15.544;2023-02-01T14:13:28;1.40;;;1.30;;
17927;SDS011;9089;58.396;15.544;2023-02-01T14:16:15;1.40;;;1.30;;
17927;SDS011;9089;58.396;15.544;2023-02-01T14:18:59;3.10;;;1.42;;
17927;SDS011;9089;58.396;15.544;2023-02-01T14:21:26;1.30;;;1.20;;
17927;SDS011;9089;58.396;15.544;2023-02-01T14:23:56;1.27;;;1.17;;
17927;SDS011;9089;58.396;15.544;2023-02-01T14:26:23;1.67;;;1.30;;
17927;SDS011;9089;58.396;15.544;2023-02-01T14:28:50;1.75;;;1.30;;
17927;SDS011;9089;58.396;15.544;2023-02-01T14:31:29;2.13;;;1.52;;
17927;SDS011;9089;58.396;15.544;2023-02-01T14:33:56;1.88;;;1.52;;
17927;SDS011;9089;58.396;15.544;2023-02-01T14:36:24;2.05;;;1.55;;
17927;SDS011;9089;58.396;15.544;2023-02-01T14:38:49;2.22;;;1.45;;
17927;SDS011;9089;58.396;15.544;2023-02-01T14:41:23;1.75;;;1.30;;
17927;SDS011;9089;58.396;15.544;2023-02-01T14:43:50;2.72;;;1.20;;
17927;SDS011;9089;58.396;15.544;2023-02-01T14:46:16;2.78;;;1.17;;
17927;SDS011;9089;58.396;15.544;2023-02-01T14:48:43;1.15;;;1.05;;
17927;SDS011;9089;58.396;15.544;2023-02-01T14:51:11;1.60;;;1.50;;
17927;SDS011;9089;58.396;15.544;2023-02-01T14:53:38;1.20;;;1.10;;
17927;SDS011;9089;58.396;15.544;2023-02-01T14:56:05;1.27;;;1.20;;
17927;SDS011;9089;58.396;15.544;2023-02-01T14:58:36;0.90;;;0.90;;
17927;SDS011;9089;58.396;15.544;2023-02-01T15:01:03;1.08;;;0.90;;
17927;SDS011;9089;58.396;15.544;2023-02-01T15:03:38;0.85;;;0.85;;
17927;SDS011;9089;58.396;15.544;2023-02-01T15:06:13;1.15;;;1.08;;
17927;SDS011;9089;58.396;15.544;2023-02-01T15:08:43;1.20;;;1.10;;